X  Κλείσε Στοιχεία αεροπορικών μετεωρολογικών δεδομένων METAR     KGAI Montgomery County Airpark
θερμοκρασία
30°F θερμοκρασία
28°F Σημείο δρόσου
93% Υγρασία



Ανεμος
5 MPH
8 KM/H
2 M/S
4 KTS



160°
NNA
Τρέχουσες συνθήκες

Νεφελώδης Νεφελώδης
πίεση 1018.96 (hPa) - 30.09 (inHg)
Ορατότητα 10 (μίλι) - 16.1 (km)
Aεροδρόμιο
Κωδικός αεροδρομίου KGAI

Τοποθεσία: Montgomery County Airpark
Απόσταση: 11 (mi)

Metar:
KGAI 221156Z AUTO 16004KT 10SM OVC007 M01/M02 A3009 RMK AO2 SLP210 6//// 7//// T10111022 10017 21022 56021 FZRANO PNO $

ώρα: 02-22-2024 6:56 am EST